Terminal Aerodrome Forecast
Issued by NWS Memphis, TN

Home | Current Version | Previous Version | Text Only | Print | Product List | Glossary On
Versions: 1 2 3 4 5 6 7 8 9 10 11 12 13 14 15 16 17 18 19 20 21 22 23 24 25 26 27 28 29 30 31 32 33
000
FTUS44 KMEG 300252 AAA
TAFMEM
TAF AMD
KMEM 300252Z 3003/3024 13007KT P6SM VCSH FEW020 OVC150
     FM300700 13007KT P6SM VCTS BKN050CB OVC150
      TEMPO 3009/3012 3SM TSRA BR BKN015CB
     FM301200 16012G20KT 5SM -TSRA BKN025CB OVC040
     FM301600 19015G25KT P6SM SCT050 BKN150
     FM302100 20012G20KT P6SM VCTS SCT050CB BKN250=

USA.gov is the U.S. government's official web portal to all federal, state and local government web resources and services.